Impacts TAF Board
For situational awareness. Not to be used for flight planning purposes.
IDs:

KTXK - Texarkana Rgnl, AR, US

Issued at 0540 UTC 18 Sep 2021
Updated at 0836 UTC 18 Sep 2021
Potential Impact None Slight Moderate High
Time0803Z 18/09Z 18/10Z 18/11Z 18/12Z 18/13Z 18/14Z 18/15Z 18/16Z 18/17Z 18/18Z 18/19Z 18/20Z 18/21Z>>
Type OBS PRVL PRVL PRVL PRVL PRVL PRVL PRVL PRVL PRVL PRVL PRVL PRVL PRVL
VIS 10 >6 >6 >6 >6 >6 >6 >6 >6 >6 >6 >6 >6 >6
CIG 9 7 7 7 7 7 7 7 10 10 20 20 20 30
Cover OVC OVC OVC OVC OVC OVC OVC OVC OVC OVC BKN BKN BKN BKN
FltCat IFR IFR IFR IFR IFR IFR IFR IFR MVFR MVFR MVFR MVFR MVFR MVFR
WX -- -- -- -- -- -- -- -- -- -- VCSH VCSH VCSH VCSH
WDir 20 VRB VRB VRB VRB VRB VRB VRB 50 50 50 50 50 50
WSpd 4 3 3 3 3 3 3 3 4 4 5 5 5 5
WGst -- -- -- -- -- -- -- -- -- -- -- -- -- --
Raw TAF
KTXK 180540Z 1806/1906 05004KT P6SM SCT014
  TEMPO 1806/1807 BKN014
  FM180700 VRB03KT P6SM BKN014
  FM180900 VRB03KT P6SM OVC007
  FM181600 05004KT P6SM OVC010
  FM181800 05005KT P6SM VCSH BKN020
  FM182100 05005KT P6SM VCSH BKN030
  FM190000 06004KT P6SM SCT035


Raw METAR
KTXK 180803Z AUTO 02004KT 10SM OVC009 24/22 A3003 RMK AO2 CIG 008V014 T02390217
KTXK 180753Z AUTO 02004KT 10SM OVC011 24/22 A3003 RMK AO2 SLP163 T02390217
KTXK 180653Z AUTO 01004KT 10SM BKN013 OVC026 24/22 A3003 RMK AO2 SLP162 T02390217
KTXK 180641Z AUTO 05003KT 10SM BKN014 OVC025 24/22 A3002 RMK AO2 T02390217
KTXK 180619Z AUTO 06004KT 10SM FEW016 BKN023 24/22 A3002 RMK AO2 T02390217
KTXK 180553Z AUTO 05003KT 10SM CLR 24/22 A3001 RMK AO2 SLP157 T02390222 10267 20239 403170217 50004

METAR Board
Radar Display
Forecast Discussion
For situational awareness. Not to be used for flight planning purposes.